Time;durP1;ratioP1;P1;durP2;ratioP2;P2;SDS_P1;SDS_P2;PMS_P1;PMS_P2;Temp;Humidity;BMP_temperature;BMP_pressure;BME280_temperature;BME280_humidity;BME280_pressure;Samples;Min_cycle;Max_cycle;Signal;HPM_P1;HPM_P2
2024/01/04 00:00:32;;;;;;;11.05;10.15;;;;;;;;;;5031269;28;20185;-45
2024/01/04 00:02:58;;;;;;;12.10;11.00;;;;;;;;;;5022800;28;20211;-45
2024/01/04 00:05:24;;;;;;;11.77;10.73;;;;;;;;;;5003380;28;20505;-45
2024/01/04 00:07:50;;;;;;;11.55;10.48;;;;;;;;;;5006790;28;20419;-45
2024/01/04 00:10:17;;;;;;;10.65;9.65;;;;;;;;;;5011664;28;20179;-45
2024/01/04 00:12:48;;;;;;;9.93;9.00;;;;;;;;;;5019482;28;20573;-45
2024/01/04 00:15:14;;;;;;;12.05;10.85;;;;;;;;;;5018595;28;20175;-45
2024/01/04 00:17:40;;;;;;;73.00;38.00;;;;;;;;;;5020812;28;20198;-45
2024/01/04 00:20:06;;;;;;;12.83;11.60;;;;;;;;;;5006762;28;20425;-45
2024/01/04 00:22:32;;;;;;;26.70;24.40;;;;;;;;;;5007016;28;20439;-45
2024/01/04 00:24:58;;;;;;;49.00;29.97;;;;;;;;;;5006677;28;20181;-45
2024/01/04 00:27:24;;;;;;;19.93;17.40;;;;;;;;;;5011186;28;20992;-45
2024/01/04 00:29:50;;;;;;;31.40;28.10;;;;;;;;;;5010547;28;20759;-46
2024/01/04 00:32:16;;;;;;;10.83;9.67;;;;;;;;;;5007944;28;20568;-46
2024/01/04 00:34:43;;;;;;;63.13;32.70;;;;;;;;;;5015949;28;20453;-45
2024/01/04 00:37:09;;;;;;;44.15;21.85;;;;;;;;;;5016583;28;20395;-46
2024/01/04 00:39:35;;;;;;;53.40;26.63;;;;;;;;;;5006409;28;20567;-45
2024/01/04 00:42:02;;;;;;;30.67;27.67;;;;;;;;;;5006394;28;20212;-45
2024/01/04 00:44:28;;;;;;;29.70;26.40;;;;;;;;;;5010554;28;20783;-45
2024/01/04 00:46:54;;;;;;;47.70;31.08;;;;;;;;;;5012010;28;20287;-45
2024/01/04 00:49:20;;;;;;;20.40;18.60;;;;;;;;;;5011246;28;20706;-45
2024/01/04 00:51:46;;;;;;;57.90;27.92;;;;;;;;;;5009491;28;20450;-46
2024/01/04 00:54:13;;;;;;;74.13;35.95;;;;;;;;;;5006152;28;20179;-45
2024/01/04 00:56:39;;;;;;;14.10;12.82;;;;;;;;;;5006484;28;20193;-45
2024/01/04 00:59:05;;;;;;;54.47;36.80;;;;;;;;;;5005940;28;20210;-46
2024/01/04 01:01:34;;;;;;;57.85;32.08;;;;;;;;;;5014307;28;20670;-45
2024/01/04 01:04:00;;;;;;;87.82;44.10;;;;;;;;;;5016979;28;20186;-45
2024/01/04 01:06:26;;;;;;;60.35;37.03;;;;;;;;;;5018769;28;20176;-45
2024/01/04 01:08:52;;;;;;;42.13;35.72;;;;;;;;;;5019452;28;20193;-45
2024/01/04 01:11:18;;;;;;;37.87;29.47;;;;;;;;;;5016943;28;20172;-45
2024/01/04 01:13:44;;;;;;;42.53;38.95;;;;;;;;;;5019057;28;20455;-45
2024/01/04 01:16:11;;;;;;;30.73;28.10;;;;;;;;;;5006101;28;20234;-45
2024/01/04 01:18:38;;;;;;;31.75;28.85;;;;;;;;;;5004662;28;20419;-45
2024/01/04 01:21:04;;;;;;;9.98;8.98;;;;;;;;;;5005818;28;20175;-45
2024/01/04 01:23:30;;;;;;;10.10;9.10;;;;;;;;;;5009333;28;20211;-46
2024/01/04 01:25:56;;;;;;;11.60;10.50;;;;;;;;;;5010434;28;20418;-45
2024/01/04 01:28:22;;;;;;;71.85;35.85;;;;;;;;;;5010269;28;20427;-45
2024/01/04 01:30:48;;;;;;;39.58;35.67;;;;;;;;;;5009363;28;20168;-45
2024/01/04 01:33:14;;;;;;;43.53;39.10;;;;;;;;;;5005559;28;20254;-45
2024/01/04 01:35:40;;;;;;;40.17;36.17;;;;;;;;;;5005581;28;20422;-45
2024/01/04 01:38:06;;;;;;;12.13;11.00;;;;;;;;;;5005365;28;20412;-45
2024/01/04 01:40:32;;;;;;;18.07;16.80;;;;;;;;;;5008895;28;20408;-46
2024/01/04 01:42:59;;;;;;;11.33;10.33;;;;;;;;;;5011153;28;20442;-46
2024/01/04 01:45:25;;;;;;;9.98;8.98;;;;;;;;;;5016245;28;20570;-46
2024/01/04 01:47:51;;;;;;;10.23;9.33;;;;;;;;;;5013422;28;20661;-46
2024/01/04 01:50:20;;;;;;;9.65;8.75;;;;;;;;;;5005327;28;20880;-46
2024/01/04 01:52:46;;;;;;;11.07;9.98;;;;;;;;;;5005093;28;20225;-45
2024/01/04 01:55:14;;;;;;;10.68;9.73;;;;;;;;;;5005246;28;20836;-45
2024/01/04 01:57:40;;;;;;;11.13;10.05;;;;;;;;;;5014300;28;20205;-46
2024/01/04 02:00:06;;;;;;;11.40;10.20;;;;;;;;;;5015949;28;20212;-46
2024/01/04 02:02:34;;;;;;;12.95;11.75;;;;;;;;;;5016645;28;20447;-46
2024/01/04 02:05:00;;;;;;;15.10;13.80;;;;;;;;;;5018263;28;20273;-46
2024/01/04 02:07:26;;;;;;;14.38;13.07;;;;;;;;;;5016029;28;20183;-45
2024/01/04 02:09:52;;;;;;;10.90;9.80;;;;;;;;;;5017128;28;20668;-46
2024/01/04 02:12:18;;;;;;;9.63;8.70;;;;;;;;;;5012947;28;20528;-46
2024/01/04 02:14:44;;;;;;;11.97;10.93;;;;;;;;;;5029471;28;20654;-46
2024/01/04 02:17:10;;;;;;;8.93;8.13;;;;;;;;;;5020152;28;20933;-45
2024/01/04 02:19:36;;;;;;;10.05;9.05;;;;;;;;;;5021164;28;20507;-46
2024/01/04 02:22:02;;;;;;;9.43;8.52;;;;;;;;;;5027907;28;20211;-47
2024/01/04 02:24:28;;;;;;;11.27;10.18;;;;;;;;;;5013206;28;20175;-45
2024/01/04 02:26:56;;;;;;;11.07;10.07;;;;;;;;;;5032806;28;20170;-46
2024/01/04 02:29:22;;;;;;;8.35;7.57;;;;;;;;;;5015492;28;20450;-45
2024/01/04 02:31:49;;;;;;;13.53;12.43;;;;;;;;;;5025081;28;20235;-46
2024/01/04 02:34:15;;;;;;;16.15;14.75;;;;;;;;;;5023919;28;20635;-45
2024/01/04 02:36:41;;;;;;;11.68;10.57;;;;;;;;;;5017011;28;20171;-45
2024/01/04 02:39:09;;;;;;;12.20;11.00;;;;;;;;;;5017602;28;20183;-45
2024/01/04 02:41:35;;;;;;;10.07;9.07;;;;;;;;;;5007523;28;20462;-46
2024/01/04 02:44:01;;;;;;;9.17;8.27;;;;;;;;;;5009519;28;20648;-46
2024/01/04 02:46:27;;;;;;;11.10;10.10;;;;;;;;;;5015062;28;20417;-46
2024/01/04 02:48:52;;;;;;;13.10;11.98;;;;;;;;;;5017392;28;20425;-47
2024/01/04 02:51:18;;;;;;;10.63;9.73;;;;;;;;;;5012306;28;20176;-46
2024/01/04 02:53:44;;;;;;;15.33;13.87;;;;;;;;;;5013885;28;20545;-45
2024/01/04 02:56:10;;;;;;;10.63;9.57;;;;;;;;;;5015624;28;20411;-45
2024/01/04 02:58:38;;;;;;;16.03;13.80;;;;;;;;;;5006593;28;20424;-45
2024/01/04 03:01:03;;;;;;;10.52;9.35;;;;;;;;;;5008811;28;20779;-46
2024/01/04 03:03:29;;;;;;;9.70;8.80;;;;;;;;;;5004955;28;20195;-46
2024/01/04 03:08:59;;;;;;;10.88;9.77;;;;;;;;;;5005978;28;20409;-46
2024/01/04 03:11:25;;;;;;;8.17;7.37;;;;;;;;;;5012383;28;20199;-46
2024/01/04 03:13:51;;;;;;;10.77;9.60;;;;;;;;;;5003701;28;20880;-46
2024/01/04 03:16:19;;;;;;;9.18;8.20;;;;;;;;;;5011918;28;20222;-45
2024/01/04 03:18:45;;;;;;;10.98;9.75;;;;;;;;;;5019705;28;20189;-46
2024/01/04 03:21:11;;;;;;;9.80;8.90;;;;;;;;;;5014180;28;20179;-45
2024/01/04 03:23:37;;;;;;;10.20;9.17;;;;;;;;;;5014346;28;20423;-45
2024/01/04 03:26:03;;;;;;;10.53;9.50;;;;;;;;;;5016084;28;20423;-46
2024/01/04 03:28:29;;;;;;;11.38;10.10;;;;;;;;;;5011739;28;20779;-45
2024/01/04 03:30:55;;;;;;;9.45;8.45;;;;;;;;;;5003765;28;20269;-45
2024/01/04 03:33:21;;;;;;;10.40;9.40;;;;;;;;;;5003568;28;20294;-46
2024/01/04 03:35:47;;;;;;;9.03;8.13;;;;;;;;;;5012502;28;20413;-46
2024/01/04 03:38:13;;;;;;;11.37;10.20;;;;;;;;;;5014051;28;20422;-46
2024/01/04 03:40:38;;;;;;;10.20;9.20;;;;;;;;;;5015680;28;20415;-47
2024/01/04 03:43:04;;;;;;;9.43;8.60;;;;;;;;;;5020499;28;20476;-46
2024/01/04 03:45:31;;;;;;;9.90;8.98;;;;;;;;;;5019493;28;20413;-45
2024/01/04 03:47:58;;;;;;;12.07;10.85;;;;;;;;;;5018949;28;20167;-46
2024/01/04 03:50:24;;;;;;;10.05;9.15;;;;;;;;;;5007781;28;20543;-45
2024/01/04 03:52:50;;;;;;;10.30;9.30;;;;;;;;;;5007130;28;20216;-46
2024/01/04 03:55:16;;;;;;;8.85;8.05;;;;;;;;;;5007414;28;20229;-45
2024/01/04 03:57:45;;;;;;;10.50;9.50;;;;;;;;;;5009699;28;20184;-46
2024/01/04 04:00:12;;;;;;;10.95;9.95;;;;;;;;;;5011840;28;20176;-46
2024/01/04 04:02:37;;;;;;;10.60;9.65;;;;;;;;;;5010245;28;20297;-46
2024/01/04 04:05:03;;;;;;;10.77;9.70;;;;;;;;;;5014265;28;20661;-46
2024/01/04 04:07:29;;;;;;;12.13;10.93;;;;;;;;;;5008251;28;20410;-45
2024/01/04 04:09:56;;;;;;;10.03;9.20;;;;;;;;;;5007266;28;20194;-45
2024/01/04 04:12:22;;;;;;;10.18;9.25;;;;;;;;;;5020799;28;20465;-46
2024/01/04 04:14:48;;;;;;;10.18;9.30;;;;;;;;;;5022478;28;20182;-45
2024/01/04 04:17:18;;;;;;;10.15;9.25;;;;;;;;;;5015222;28;20206;-46
2024/01/04 04:19:44;;;;;;;11.10;10.07;;;;;;;;;;5017233;28;20180;-46
2024/01/04 04:22:10;;;;;;;11.57;10.47;;;;;;;;;;5018837;28;20284;-46
2024/01/04 04:24:36;;;;;;;12.73;11.57;;;;;;;;;;5017622;28;20419;-46
2024/01/04 04:27:02;;;;;;;10.60;9.67;;;;;;;;;;5017834;28;20608;-46
2024/01/04 04:29:27;;;;;;;10.53;9.57;;;;;;;;;;5021863;28;20418;-46
2024/01/04 04:31:55;;;;;;;11.93;10.87;;;;;;;;;;5006810;28;21032;-45
2024/01/04 04:34:21;;;;;;;12.25;11.15;;;;;;;;;;5006559;28;20403;-46
2024/01/04 04:36:47;;;;;;;11.07;10.07;;;;;;;;;;5007989;28;20328;-46
2024/01/04 04:39:13;;;;;;;11.40;10.30;;;;;;;;;;5011241;28;20464;-46
2024/01/04 04:41:39;;;;;;;10.57;9.65;;;;;;;;;;5008938;28;20431;-46
2024/01/04 04:44:05;;;;;;;11.38;10.27;;;;;;;;;;5007146;28;20214;-46
2024/01/04 04:46:31;;;;;;;11.90;10.83;;;;;;;;;;5014676;28;20218;-47
2024/01/04 04:48:58;;;;;;;13.17;11.93;;;;;;;;;;5015715;28;20429;-45
2024/01/04 04:51:25;;;;;;;13.48;12.27;;;;;;;;;;5006150;28;20410;-46
2024/01/04 04:53:51;;;;;;;11.88;10.85;;;;;;;;;;5007167;28;20207;-46
2024/01/04 04:56:17;;;;;;;13.10;12.00;;;;;;;;;;5011156;28;20545;-46
2024/01/04 04:58:43;;;;;;;12.55;11.45;;;;;;;;;;5009680;28;20273;-46
2024/01/04 05:01:09;;;;;;;14.10;12.87;;;;;;;;;;5016383;28;20268;-46
2024/01/04 05:03:36;;;;;;;14.57;13.13;;;;;;;;;;5015106;28;20411;-46
2024/01/04 05:06:02;;;;;;;11.98;11.02;;;;;;;;;;5016905;28;20407;-45
2024/01/04 05:08:28;;;;;;;14.80;13.30;;;;;;;;;;5019521;28;20528;-46
2024/01/04 05:10:54;;;;;;;10.53;9.53;;;;;;;;;;5019372;28;20273;-45
2024/01/04 05:13:20;;;;;;;11.37;9.93;;;;;;;;;;5032999;28;21039;-45
2024/01/04 05:15:46;;;;;;;11.13;10.07;;;;;;;;;;5014216;28;20493;-46
2024/01/04 05:18:12;;;;;;;12.70;11.50;;;;;;;;;;5030828;28;20402;-46
2024/01/04 05:20:38;;;;;;;10.93;9.93;;;;;;;;;;5021159;28;20517;-47
2024/01/04 05:23:04;;;;;;;10.47;9.47;;;;;;;;;;5022621;28;20434;-45
2024/01/04 05:25:30;;;;;;;10.75;9.68;;;;;;;;;;5029188;28;20450;-45
2024/01/04 05:27:56;;;;;;;12.20;11.17;;;;;;;;;;5014427;28;20208;-45
2024/01/04 05:30:22;;;;;;;12.37;11.03;;;;;;;;;;5024418;28;20426;-46
2024/01/04 05:32:48;;;;;;;9.30;8.40;;;;;;;;;;5013479;28;20477;-45
2024/01/04 05:35:14;;;;;;;10.03;8.87;;;;;;;;;;5005514;28;20549;-46
2024/01/04 05:37:40;;;;;;;9.05;8.10;;;;;;;;;;5010404;28;20414;-45
2024/01/04 05:40:06;;;;;;;12.03;10.87;;;;;;;;;;5009834;28;20186;-46
2024/01/04 05:42:32;;;;;;;11.45;10.30;;;;;;;;;;5014525;28;20442;-45
2024/01/04 05:44:58;;;;;;;8.97;7.93;;;;;;;;;;5016153;28;20555;-45
2024/01/04 05:47:24;;;;;;;10.57;9.47;;;;;;;;;;5017431;28;20877;-45
2024/01/04 05:49:50;;;;;;;13.20;12.03;;;;;;;;;;5013299;28;20417;-46
2024/01/04 05:52:16;;;;;;;48.50;33.90;;;;;;;;;;5014480;22;20464;-45
2024/01/04 05:54:42;;;;;;;10.30;9.30;;;;;;;;;;5012860;28;20897;-45
2024/01/04 05:57:08;;;;;;;9.30;8.35;;;;;;;;;;5013802;28;21136;-45
2024/01/04 05:59:34;;;;;;;9.00;7.68;;;;;;;;;;5005115;28;20175;-45
2024/01/04 06:02:00;;;;;;;9.90;8.93;;;;;;;;;;5013257;28;20612;-46
2024/01/04 06:04:26;;;;;;;12.68;11.45;;;;;;;;;;5012638;28;20500;-45
2024/01/04 06:06:55;;;;;;;9.87;8.53;;;;;;;;;;5013396;28;20261;-45
2024/01/04 06:09:21;;;;;;;10.85;9.82;;;;;;;;;;5009661;28;20418;-45
2024/01/04 06:11:48;;;;;;;11.27;10.27;;;;;;;;;;5008408;28;20217;-45
2024/01/04 06:14:14;;;;;;;10.27;9.23;;;;;;;;;;5004957;28;20253;-45
2024/01/04 06:16:40;;;;;;;12.18;11.07;;;;;;;;;;5004913;28;20185;-45
2024/01/04 06:19:06;;;;;;;11.82;10.63;;;;;;;;;;5004638;28;20191;-46
2024/01/04 06:21:32;;;;;;;11.47;10.40;;;;;;;;;;5008469;28;20178;-46
2024/01/04 06:23:59;;;;;;;11.33;10.23;;;;;;;;;;5009612;28;20499;-46
2024/01/04 06:26:25;;;;;;;10.23;9.30;;;;;;;;;;5009018;28;20899;-46
2024/01/04 06:28:51;;;;;;;10.53;9.57;;;;;;;;;;5008631;28;20195;-45
2024/01/04 06:31:17;;;;;;;11.13;10.05;;;;;;;;;;5004558;28;20426;-46
2024/01/04 06:33:43;;;;;;;12.83;11.53;;;;;;;;;;5004455;28;20222;-46
2024/01/04 06:36:09;;;;;;;11.10;10.00;;;;;;;;;;5004737;28;20513;-45
2024/01/04 06:38:35;;;;;;;15.80;14.10;;;;;;;;;;5012611;28;20419;-45
2024/01/04 06:41:03;;;;;;;11.95;10.75;;;;;;;;;;5012723;28;20419;-45
2024/01/04 06:43:30;;;;;;;10.88;9.88;;;;;;;;;;5012762;28;20199;-45
2024/01/04 06:45:56;;;;;;;12.80;11.48;;;;;;;;;;5012406;28;20186;-46
2024/01/04 06:48:22;;;;;;;13.03;11.73;;;;;;;;;;5004233;28;20243;-46
2024/01/04 06:50:47;;;;;;;9.40;8.60;;;;;;;;;;5004747;28;20419;-46
2024/01/04 06:53:16;;;;;;;11.70;10.53;;;;;;;;;;5012231;28;20469;-47
2024/01/04 06:55:43;;;;;;;11.25;10.15;;;;;;;;;;5012500;28;20415;-47
2024/01/04 06:58:09;;;;;;;10.40;9.35;;;;;;;;;;5012340;28;20176;-47
2024/01/04 07:00:39;;;;;;;13.05;11.95;;;;;;;;;;5011103;28;20606;-47
2024/01/04 07:03:05;;;;;;;10.35;9.35;;;;;;;;;;5012269;28;20227;-47
2024/01/04 07:05:31;;;;;;;12.80;11.60;;;;;;;;;;5007673;28;20183;-48
2024/01/04 07:07:57;;;;;;;11.30;10.17;;;;;;;;;;5008788;28;20233;-47
2024/01/04 07:10:23;;;;;;;12.63;11.50;;;;;;;;;;5004256;28;20408;-47
2024/01/04 07:12:50;;;;;;;10.68;9.68;;;;;;;;;;5004287;28;20482;-47
2024/01/04 07:15:16;;;;;;;13.60;12.30;;;;;;;;;;5004398;28;20237;-45
2024/01/04 07:17:42;;;;;;;10.57;9.57;;;;;;;;;;5005114;28;20177;-46
2024/01/04 07:20:09;;;;;;;12.80;11.70;;;;;;;;;;5010380;28;20596;-46
2024/01/04 07:22:35;;;;;;;12.10;11.00;;;;;;;;;;5012092;28;20967;-45
2024/01/04 07:25:01;;;;;;;10.95;9.95;;;;;;;;;;5011323;28;20186;-46
2024/01/04 07:27:30;;;;;;;13.05;11.80;;;;;;;;;;5004558;28;20602;-46
2024/01/04 07:29:57;;;;;;;10.35;9.43;;;;;;;;;;5003703;28;20227;-46
2024/01/04 07:32:23;;;;;;;11.20;10.15;;;;;;;;;;5011714;28;20203;-46
2024/01/04 07:34:49;;;;;;;11.13;10.20;;;;;;;;;;5003935;28;20182;-46
2024/01/04 07:37:15;;;;;;;10.95;9.95;;;;;;;;;;5003771;28;20422;-46
2024/01/04 07:39:41;;;;;;;11.83;10.83;;;;;;;;;;5005860;28;20308;-45
2024/01/04 07:42:08;;;;;;;12.05;10.95;;;;;;;;;;5008162;28;20964;-46
2024/01/04 07:44:34;;;;;;;11.18;10.18;;;;;;;;;;5005204;28;20548;-46
2024/01/04 07:47:00;;;;;;;12.77;11.65;;;;;;;;;;5003593;28;20176;-46
2024/01/04 07:49:26;;;;;;;12.38;11.38;;;;;;;;;;5011754;28;20175;-46
2024/01/04 07:51:52;;;;;;;12.13;11.00;;;;;;;;;;5011902;28;20582;-46
2024/01/04 07:54:18;;;;;;;11.70;10.73;;;;;;;;;;5011551;28;20466;-46
2024/01/04 07:56:44;;;;;;;13.43;12.23;;;;;;;;;;5011570;28;20258;-45
2024/01/04 07:59:10;;;;;;;10.87;9.87;;;;;;;;;;5011524;28;20270;-46
2024/01/04 08:01:36;;;;;;;10.30;9.30;;;;;;;;;;5006439;28;20427;-46
2024/01/04 08:04:03;;;;;;;9.00;8.20;;;;;;;;;;5008163;28;20442;-46
2024/01/04 08:06:30;;;;;;;10.05;9.25;;;;;;;;;;5004764;28;20411;-46
2024/01/04 08:08:56;;;;;;;11.43;10.40;;;;;;;;;;5007926;28;20655;-46
2024/01/04 08:11:23;;;;;;;12.20;11.03;;;;;;;;;;5019308;28;20187;-46
2024/01/04 08:13:49;;;;;;;12.68;11.68;;;;;;;;;;5027215;28;20467;-46
2024/01/04 08:16:15;;;;;;;11.65;10.82;;;;;;;;;;5011643;28;20170;-45
2024/01/04 08:18:41;;;;;;;12.57;11.47;;;;;;;;;;5030945;28;20171;-45
2024/01/04 08:21:07;;;;;;;11.43;10.47;;;;;;;;;;5016087;28;20420;-45
2024/01/04 08:23:33;;;;;;;13.13;12.00;;;;;;;;;;5022766;28;20782;-45
2024/01/04 08:25:59;;;;;;;11.80;10.70;;;;;;;;;;5023825;28;20450;-45
2024/01/04 08:28:25;;;;;;;12.15;11.15;;;;;;;;;;5016575;28;20892;-45
2024/01/04 08:30:51;;;;;;;11.43;10.43;;;;;;;;;;5035039;28;20163;-45
2024/01/04 08:33:17;;;;;;;11.07;10.10;;;;;;;;;;5015606;28;21004;-45
2024/01/04 08:35:43;;;;;;;12.53;11.43;;;;;;;;;;5030061;28;20935;-46
2024/01/04 08:38:09;;;;;;;11.50;10.50;;;;;;;;;;5023899;28;20902;-45
2024/01/04 08:40:38;;;;;;;12.43;11.40;;;;;;;;;;5021422;28;20423;-45
2024/01/04 08:43:06;;;;;;;13.80;12.70;;;;;;;;;;5031479;28;20496;-45
2024/01/04 08:45:32;;;;;;;11.45;10.45;;;;;;;;;;5014937;28;20164;-45
2024/01/04 08:47:58;;;;;;;11.93;10.83;;;;;;;;;;5024945;28;20176;-45
2024/01/04 08:50:24;;;;;;;10.50;9.63;;;;;;;;;;5029677;28;20414;-45
2024/01/04 08:52:50;;;;;;;12.02;10.98;;;;;;;;;;5023193;28;20219;-45
2024/01/04 08:55:18;;;;;;;11.77;10.70;;;;;;;;;;5021404;28;20200;-46
2024/01/04 08:57:44;;;;;;;11.90;10.70;;;;;;;;;;5031261;28;20409;-45
2024/01/04 09:00:10;;;;;;;12.37;11.47;;;;;;;;;;5014580;28;20164;-45
2024/01/04 09:02:36;;;;;;;13.05;11.88;;;;;;;;;;5014662;28;20439;-46
2024/01/04 09:05:02;;;;;;;12.07;10.97;;;;;;;;;;4999752;28;20183;-45
2024/01/04 09:07:28;;;;;;;10.47;9.60;;;;;;;;;;5005570;28;20457;-45
2024/01/04 09:09:54;;;;;;;12.37;11.27;;;;;;;;;;5007461;28;21062;-46
2024/01/04 09:12:20;;;;;;;11.80;10.80;;;;;;;;;;4997256;28;20474;-46
2024/01/04 09:14:47;;;;;;;11.15;10.13;;;;;;;;;;5014339;28;20402;-45
2024/01/04 09:17:13;;;;;;;12.73;11.63;;;;;;;;;;4996049;28;20177;-45
2024/01/04 09:19:41;;;;;;;11.10;10.10;;;;;;;;;;5008613;28;20261;-45
2024/01/04 09:22:07;;;;;;;12.30;11.30;;;;;;;;;;5003505;28;20220;-45
2024/01/04 09:24:34;;;;;;;11.80;10.77;;;;;;;;;;5001159;28;20199;-45
2024/01/04 09:27:00;;;;;;;12.55;11.55;;;;;;;;;;5011674;28;20954;-45
2024/01/04 09:29:26;;;;;;;11.57;10.52;;;;;;;;;;4994355;28;20584;-45
2024/01/04 09:31:52;;;;;;;15.15;13.98;;;;;;;;;;5012666;28;20196;-46
2024/01/04 09:34:18;;;;;;;15.03;13.93;;;;;;;;;;4999733;28;20196;-46
2024/01/04 09:36:45;;;;;;;15.48;14.25;;;;;;;;;;5004472;28;20410;-45
2024/01/04 09:39:17;;;;;;;13.50;12.35;;;;;;;;;;5006629;28;20182;-45
2024/01/04 09:41:47;;;;;;;17.83;16.15;;;;;;;;;;4999661;28;20323;-46
2024/01/04 09:44:13;;;;;;;11.60;10.60;;;;;;;;;;5012080;28;20196;-45
2024/01/04 09:46:40;;;;;;;11.30;10.30;;;;;;;;;;5013206;28;20189;-46
2024/01/04 09:49:07;;;;;;;12.43;11.30;;;;;;;;;;5012893;28;20180;-46
2024/01/04 09:51:39;;;;;;;13.27;12.07;;;;;;;;;;5012457;28;20186;-45
2024/01/04 09:54:09;;;;;;;11.85;10.85;;;;;;;;;;5010442;28;20204;-45
2024/01/04 09:56:42;;;;;;;11.50;10.50;;;;;;;;;;5013211;28;20203;-45
2024/01/04 09:59:08;;;;;;;12.13;11.02;;;;;;;;;;5011851;28;20504;-46
2024/01/04 10:01:36;;;;;;;11.25;10.25;;;;;;;;;;5010680;28;20195;-46
2024/01/04 10:04:11;;;;;;;13.63;12.52;;;;;;;;;;5012092;28;20188;-45
2024/01/04 10:06:38;;;;;;;12.95;11.88;;;;;;;;;;5011681;28;20186;-46
2024/01/04 10:09:23;;;;;;;14.70;13.40;;;;;;;;;;5011627;28;20211;-46
2024/01/04 10:11:57;;;;;;;13.70;12.60;;;;;;;;;;5012261;28;20190;-46
2024/01/04 10:14:24;;;;;;;12.90;11.90;;;;;;;;;;5004610;28;20206;-46
2024/01/04 10:16:51;;;;;;;13.95;12.75;;;;;;;;;;5012189;28;20180;-45
2024/01/04 10:19:17;;;;;;;13.95;12.85;;;;;;;;;;5012046;28;20180;-45
2024/01/04 10:21:43;;;;;;;11.65;10.70;;;;;;;;;;5012970;28;20222;-46
2024/01/04 10:24:13;;;;;;;11.98;10.98;;;;;;;;;;4999440;28;20207;-45
2024/01/04 10:26:39;;;;;;;14.13;13.07;;;;;;;;;;5003848;28;20593;-45
2024/01/04 10:29:06;;;;;;;12.68;11.60;;;;;;;;;;5012261;28;20354;-46
2024/01/04 10:31:32;;;;;;;16.30;15.10;;;;;;;;;;5012913;28;20185;-45
2024/01/04 10:33:59;;;;;;;19.17;17.17;;;;;;;;;;5010434;28;20226;-46
2024/01/04 10:36:28;;;;;;;14.23;13.13;;;;;;;;;;5010518;28;20423;-46
2024/01/04 10:39:07;;;;;;;11.98;10.98;;;;;;;;;;5012072;28;20179;-46
2024/01/04 10:41:33;;;;;;;15.82;14.32;;;;;;;;;;5011370;28;20220;-46
2024/01/04 10:44:05;;;;;;;11.33;10.33;;;;;;;;;;5011414;28;20655;-45
2024/01/04 10:46:30;;;;;;;15.05;13.90;;;;;;;;;;5002539;28;20419;-45
2024/01/04 10:48:57;;;;;;;18.50;16.80;;;;;;;;;;5011807;28;20190;-45
2024/01/04 10:51:23;;;;;;;13.38;12.13;;;;;;;;;;5003905;28;20414;-45
2024/01/04 10:53:50;;;;;;;12.68;11.55;;;;;;;;;;5010904;28;20211;-45
2024/01/04 10:56:17;;;;;;;12.32;11.25;;;;;;;;;;5009149;28;20250;-45
2024/01/04 10:58:43;;;;;;;10.60;9.60;;;;;;;;;;5010315;28;20187;-45
2024/01/04 11:01:09;;;;;;;14.00;12.90;;;;;;;;;;5011875;28;20179;-45
2024/01/04 11:03:36;;;;;;;9.88;8.93;;;;;;;;;;5011549;28;20188;-45
2024/01/04 11:06:05;;;;;;;10.88;9.93;;;;;;;;;;4991439;28;20327;-46
2024/01/04 11:08:33;;;;;;;16.60;14.98;;;;;;;;;;5009373;28;20168;-45
2024/01/04 11:11:01;;;;;;;12.75;11.68;;;;;;;;;;4999026;28;20226;-46
2024/01/04 11:13:27;;;;;;;10.60;9.65;;;;;;;;;;5001863;28;20802;-45
2024/01/04 11:15:55;;;;;;;10.73;9.83;;;;;;;;;;5006807;28;20279;-45
2024/01/04 11:18:32;;;;;;;13.18;11.93;;;;;;;;;;4993885;28;20867;-45
2024/01/04 11:21:08;;;;;;;15.23;13.93;;;;;;;;;;5012159;28;20170;-46
2024/01/04 11:23:51;;;;;;;11.35;10.50;;;;;;;;;;4992748;28;20230;-46
2024/01/04 11:26:24;;;;;;;14.35;13.25;;;;;;;;;;5010812;28;20180;-45
2024/01/04 11:28:50;;;;;;;11.35;10.35;;;;;;;;;;5011451;28;20294;-46
2024/01/04 11:31:16;;;;;;;11.05;10.07;;;;;;;;;;5000712;28;20184;-46
2024/01/04 11:33:49;;;;;;;13.82;12.73;;;;;;;;;;4999257;28;20721;-45
2024/01/04 11:36:19;;;;;;;12.50;11.48;;;;;;;;;;5008064;28;20180;-45
2024/01/04 11:38:45;;;;;;;11.85;10.95;;;;;;;;;;4992691;28;20161;-45
2024/01/04 11:41:11;;;;;;;12.70;11.65;;;;;;;;;;5011990;28;20160;-45
2024/01/04 11:43:38;;;;;;;11.37;10.37;;;;;;;;;;4995684;28;20200;-46
2024/01/04 11:46:26;;;;;;;14.20;13.00;;;;;;;;;;5004431;28;20925;-46
2024/01/04 11:49:01;;;;;;;14.02;12.93;;;;;;;;;;5011523;28;20598;-45
2024/01/04 11:51:49;;;;;;;11.20;10.25;;;;;;;;;;5003521;28;20664;-46
2024/01/04 11:54:17;;;;;;;17.92;16.58;;;;;;;;;;4999628;28;20208;-44
2024/01/04 11:56:43;;;;;;;12.10;11.20;;;;;;;;;;5008243;28;20169;-44
2024/01/04 11:59:21;;;;;;;11.55;10.65;;;;;;;;;;4992054;28;20168;-45
2024/01/04 12:01:48;;;;;;;11.65;10.68;;;;;;;;;;4992221;28;20171;-44
2024/01/04 12:04:14;;;;;;;11.77;10.73;;;;;;;;;;5012035;28;20227;-44
2024/01/04 12:06:41;;;;;;;13.50;12.37;;;;;;;;;;5002794;28;20208;-44
2024/01/04 12:09:07;;;;;;;13.88;12.77;;;;;;;;;;5004379;28;20631;-44
2024/01/04 12:11:34;;;;;;;11.73;10.82;;;;;;;;;;5010576;28;20260;-44
2024/01/04 12:14:01;;;;;;;12.57;11.57;;;;;;;;;;4996410;28;20600;-44
2024/01/04 12:16:27;;;;;;;11.77;10.82;;;;;;;;;;5015620;28;20600;-44
2024/01/04 12:18:53;;;;;;;12.77;11.75;;;;;;;;;;4998460;28;20633;-44
2024/01/04 12:21:19;;;;;;;14.77;13.63;;;;;;;;;;5008144;28;20256;-45
2024/01/04 12:23:45;;;;;;;13.83;12.73;;;;;;;;;;5006786;28;20463;-45
2024/01/04 12:26:11;;;;;;;14.07;12.95;;;;;;;;;;4997484;28;20935;-44
2024/01/04 12:28:40;;;;;;;18.63;17.08;;;;;;;;;;5004709;28;20184;-45
2024/01/04 12:31:07;;;;;;;14.40;13.40;;;;;;;;;;5015036;28;20180;-45
2024/01/04 12:33:33;;;;;;;13.98;12.88;;;;;;;;;;5014502;28;20200;-45
2024/01/04 12:35:59;;;;;;;14.00;12.70;;;;;;;;;;5002487;28;20180;-45
2024/01/04 12:38:25;;;;;;;16.13;14.48;;;;;;;;;;5002852;28;20775;-44
2024/01/04 12:40:52;;;;;;;13.70;12.60;;;;;;;;;;5009265;28;20171;-45
2024/01/04 12:43:20;;;;;;;15.77;14.45;;;;;;;;;;5009461;28;20200;-45
2024/01/04 12:45:46;;;;;;;15.10;13.70;;;;;;;;;;5014068;28;20184;-45
2024/01/04 12:48:12;;;;;;;13.98;12.88;;;;;;;;;;5013646;28;20185;-46
2024/01/04 12:50:38;;;;;;;14.67;13.57;;;;;;;;;;5013709;28;20235;-44
2024/01/04 12:53:07;;;;;;;18.75;17.45;;;;;;;;;;5007503;28;20475;-45
2024/01/04 12:55:34;;;;;;;19.80;18.48;;;;;;;;;;5013518;28;20586;-45
2024/01/04 12:57:59;;;;;;;16.40;15.10;;;;;;;;;;5012818;28;20164;-45
2024/01/04 13:00:26;;;;;;;15.50;14.40;;;;;;;;;;5014568;28;20709;-45
2024/01/04 13:02:56;;;;;;;15.77;14.57;;;;;;;;;;5013885;28;20493;-44
2024/01/04 13:05:22;;;;;;;15.57;14.35;;;;;;;;;;5007734;28;20183;-45
2024/01/04 13:07:48;;;;;;;14.27;13.17;;;;;;;;;;5013868;28;20184;-45
2024/01/04 13:10:14;;;;;;;13.70;12.60;;;;;;;;;;5013841;28;20422;-45
2024/01/04 13:12:41;;;;;;;12.13;11.10;;;;;;;;;;5013380;28;20469;-44
2024/01/04 13:15:10;;;;;;;16.83;15.48;;;;;;;;;;4993369;28;20687;-45
2024/01/04 13:17:36;;;;;;;23.00;20.77;;;;;;;;;;5011144;28;20533;-44
2024/01/04 13:20:07;;;;;;;17.10;15.90;;;;;;;;;;5012900;28;20164;-45
2024/01/04 13:22:33;;;;;;;13.02;11.98;;;;;;;;;;5013995;28;20937;-44
2024/01/04 13:24:59;;;;;;;14.57;13.47;;;;;;;;;;5013918;28;20306;-45
2024/01/04 13:27:28;;;;;;;14.25;13.15;;;;;;;;;;5010132;28;20412;-45
2024/01/04 13:29:54;;;;;;;16.35;15.15;;;;;;;;;;5016260;28;20176;-44
2024/01/04 13:32:20;;;;;;;15.85;14.55;;;;;;;;;;5013552;28;20219;-44
2024/01/04 13:34:46;;;;;;;15.27;14.07;;;;;;;;;;5013838;28;20181;-44
2024/01/04 13:37:12;;;;;;;17.00;15.55;;;;;;;;;;5013607;28;20176;-44
2024/01/04 13:39:40;;;;;;;13.47;12.47;;;;;;;;;;5014027;28;20511;-44
2024/01/04 13:42:06;;;;;;;16.23;14.82;;;;;;;;;;5013532;28;20435;-45
2024/01/04 13:44:32;;;;;;;14.43;13.32;;;;;;;;;;5006368;28;20210;-45
2024/01/04 13:46:58;;;;;;;14.05;12.95;;;;;;;;;;5005407;28;20212;-45
2024/01/04 13:49:24;;;;;;;15.23;14.13;;;;;;;;;;5009504;28;20615;-46
2024/01/04 13:51:50;;;;;;;14.13;13.07;;;;;;;;;;5009448;28;20803;-45
2024/01/04 13:54:18;;;;;;;13.10;12.07;;;;;;;;;;5004961;28;20517;-45
2024/01/04 13:56:44;;;;;;;12.73;11.63;;;;;;;;;;5013910;28;20405;-45
2024/01/04 13:59:10;;;;;;;17.55;15.95;;;;;;;;;;5013489;28;20705;-45
2024/01/04 14:01:36;;;;;;;17.27;15.98;;;;;;;;;;5010898;28;20721;-45
2024/01/04 14:04:02;;;;;;;17.80;16.67;;;;;;;;;;5013014;28;20200;-45
2024/01/04 14:06:28;;;;;;;15.70;14.53;;;;;;;;;;5013410;28;20419;-45
2024/01/04 14:08:55;;;;;;;16.73;15.53;;;;;;;;;;5012999;28;20415;-45
2024/01/04 14:11:22;;;;;;;13.98;12.70;;;;;;;;;;5013044;28;20426;-46
2024/01/04 14:13:47;;;;;;;14.43;13.20;;;;;;;;;;5011132;28;20582;-45
2024/01/04 14:16:13;;;;;;;19.47;17.97;;;;;;;;;;5011467;28;20192;-45
2024/01/04 14:18:40;;;;;;;16.37;15.13;;;;;;;;;;5012624;28;20419;-46
2024/01/04 14:21:08;;;;;;;20.27;18.58;;;;;;;;;;5001198;28;20894;-45